Time;durP1;ratioP1;P1;durP2;ratioP2;P2;SDS_P1;SDS_P2;PMS_P1;PMS_P2;Temp;Humidity;BMP_temperature;BMP_pressure;BME280_temperature;BME280_humidity;BME280_pressure;Samples;Min_cycle;Max_cycle;Signal;HPM_P1;HPM_P2
2023/09/19 00:00:43;;;;;;;3.33;2.42;;;23.90;58.90;24.50;100103.00;;;;5010645;28;20202;-52
2023/09/19 00:03:09;;;;;;;4.75;2.72;;;23.90;58.90;24.40;100105.00;;;;5011029;28;20188;-52
2023/09/19 00:05:38;;;;;;;3.20;2.38;;;23.90;58.90;24.40;100107.00;;;;5010749;28;20278;-51
2023/09/19 00:08:04;;;;;;;3.13;2.40;;;23.80;58.80;24.40;100034.00;;;;5009045;28;20261;-52
2023/09/19 00:10:34;;;;;;;3.05;2.30;;;23.80;58.80;24.40;100118.00;;;;5010444;28;20294;-52
2023/09/19 00:13:05;;;;;;;3.88;2.50;;;23.80;58.90;24.30;100121.00;;;;5009312;28;20658;-51
2023/09/19 00:15:33;;;;;;;3.88;2.70;;;23.80;58.90;24.30;100121.00;;;;5010699;28;20184;-52
2023/09/19 00:17:59;;;;;;;4.20;2.47;;;23.80;58.90;24.30;100113.00;;;;5008676;28;20571;-52
2023/09/19 00:20:25;;;;;;;3.35;2.20;;;23.80;59.00;24.30;100121.00;;;;5010257;28;20294;-52
2023/09/19 00:22:51;;;;;;;3.70;2.30;;;23.70;58.90;24.20;100127.00;;;;5008584;28;20194;-52
2023/09/19 00:25:17;;;;;;;4.10;2.40;;;23.70;59.00;24.20;100064.00;;;;5008866;28;20737;-52
2023/09/19 00:27:44;;;;;;;5.60;2.90;;;23.60;58.90;24.20;100131.00;;;;5010596;28;20184;-52
2023/09/19 00:30:14;;;;;;;3.40;2.42;;;23.60;58.90;24.10;100126.00;;;;5010831;28;20591;-51
2023/09/19 00:32:40;;;;;;;3.80;2.50;;;23.60;58.90;24.10;100126.00;;;;5011325;28;20299;-52
2023/09/19 00:35:09;;;;;;;4.30;2.83;;;23.60;59.00;24.10;100130.00;;;;5010381;28;20263;-52
2023/09/19 00:37:35;;;;;;;4.72;2.42;;;23.60;59.10;24.10;100134.00;;;;5010192;28;20403;-52
2023/09/19 00:40:03;;;;;;;3.78;2.72;;;23.60;59.20;24.10;100136.00;;;;5009919;28;20246;-52
2023/09/19 00:42:28;;;;;;;3.73;2.40;;;23.60;59.20;24.00;100132.00;;;;5010103;28;20574;-51
2023/09/19 00:44:54;;;;;;;4.45;2.70;;;23.50;59.10;24.00;100130.00;;;;5009991;28;20184;-51
2023/09/19 00:47:20;;;;;;;4.72;2.60;;;23.50;59.10;24.00;100133.00;;;;5009837;28;20179;-52
2023/09/19 00:49:52;;;;;;;4.13;2.50;;;23.50;59.20;24.00;100136.00;;;;5007889;28;20420;-52
2023/09/19 00:52:21;;;;;;;5.03;2.55;;;23.50;59.30;24.00;100145.00;;;;4977453;28;20184;-52
2023/09/19 00:54:47;;;;;;;3.97;2.53;;;23.50;59.30;24.00;100143.00;;;;5009893;28;20195;-52
2023/09/19 00:57:15;;;;;;;5.00;2.80;;;23.50;59.30;23.90;100135.00;;;;4975805;28;20183;-52
2023/09/19 00:59:42;;;;;;;6.55;3.05;;;23.40;59.10;23.90;100131.00;;;;4992086;28;20195;-52
2023/09/19 01:02:08;;;;;;;4.53;2.53;;;23.40;59.10;23.90;100130.00;;;;4992117;28;20498;-52
2023/09/19 01:04:34;;;;;;;5.38;2.70;;;23.40;59.20;23.90;100145.00;;;;5009748;28;20199;-53
2023/09/19 01:06:59;;;;;;;4.37;2.70;;;23.30;59.10;23.80;100160.00;;;;5008614;28;20554;-52
2023/09/19 01:09:26;;;;;;;4.88;2.60;;;23.30;59.10;23.80;100145.00;;;;5009679;28;20226;-51
2023/09/19 01:11:53;;;;;;;4.15;2.60;;;23.30;59.20;23.80;100154.00;;;;5009649;28;20214;-51
2023/09/19 01:14:44;;;;;;;3.78;2.55;;;23.30;59.30;23.80;100147.00;;;;4976009;28;20829;-52
2023/09/19 01:17:25;;;;;;;6.68;2.72;;;23.30;59.20;23.70;100146.00;;;;5000919;28;20345;-51
2023/09/19 01:20:26;;;;;;;4.03;2.58;;;23.20;59.10;23.70;100133.00;;;;5018378;28;20207;-51
2023/09/19 01:23:23;;;;;;;5.27;2.67;;;23.20;59.10;23.70;100149.00;;;;4977182;28;20547;-51
2023/09/19 01:26:13;;;;;;;5.22;2.90;;;23.20;59.10;23.70;100164.00;;;;5009216;28;20182;-51
2023/09/19 01:29:34;;;;;;;3.93;2.50;;;23.20;59.10;23.60;100153.00;;;;4993123;28;20199;-53
2023/09/19 01:32:04;;;;;;;5.33;2.40;;;23.10;59.20;23.60;100157.00;;;;5005028;28;20291;-51
2023/09/19 01:34:50;;;;;;;5.83;2.97;;;23.10;59.20;23.50;100168.00;;;;5016607;28;20207;-52
2023/09/19 01:37:24;;;;;;;5.93;2.77;;;23.00;59.20;23.50;100167.00;;;;5008655;28;20203;-53
2023/09/19 01:39:57;;;;;;;5.33;2.77;;;23.10;59.30;23.50;100169.00;;;;5008791;28;20211;-51
2023/09/19 01:42:37;;;;;;;6.88;3.03;;;23.00;59.20;23.50;100167.00;;;;5008001;28;20218;-51
2023/09/19 01:45:15;;;;;;;4.47;2.60;;;23.00;59.20;23.50;100179.00;;;;4991827;28;20619;-51
2023/09/19 01:47:53;;;;;;;4.93;2.77;;;23.00;59.20;23.50;100179.00;;;;5008843;28;20218;-51
2023/09/19 01:50:48;;;;;;;3.83;2.70;;;23.00;59.20;23.50;100175.00;;;;5007423;28;20297;-51
2023/09/19 01:53:30;;;;;;;8.53;3.00;;;23.00;59.20;23.40;100177.00;;;;5008358;28;20197;-52
2023/09/19 01:55:56;;;;;;;5.77;2.93;;;23.00;59.20;23.20;100185.00;;;;5007665;28;20231;-51
2023/09/19 01:58:34;;;;;;;5.77;2.63;;;22.90;59.10;23.40;100181.00;;;;5007269;28;20179;-51
2023/09/19 02:01:00;;;;;;;7.20;3.00;;;22.90;59.20;23.40;100193.00;;;;4992016;28;20234;-52
2023/09/19 02:03:27;;;;;;;4.03;2.80;;;22.90;59.20;23.40;100188.00;;;;4990532;28;20560;-52
2023/09/19 02:05:53;;;;;;;4.70;2.67;;;23.00;59.30;23.40;100182.00;;;;5007446;28;20176;-52
2023/09/19 02:08:20;;;;;;;3.37;2.40;;;22.90;59.20;23.30;100185.00;;;;5007377;28;20187;-51
2023/09/19 02:10:48;;;;;;;5.83;2.73;;;22.90;59.20;23.40;100198.00;;;;5008291;28;20199;-52
2023/09/19 02:13:19;;;;;;;6.80;3.00;;;22.90;59.20;23.30;100195.00;;;;5000133;28;20176;-52
2023/09/19 02:15:45;;;;;;;4.77;2.80;;;22.80;59.20;23.30;100202.00;;;;4991008;28;20183;-51
2023/09/19 02:18:18;;;;;;;5.93;2.70;;;22.80;59.10;23.30;100199.00;;;;5008516;28;20681;-52
2023/09/19 02:20:43;;;;;;;4.27;2.70;;;22.80;59.20;23.30;100207.00;;;;5008777;28;20261;-52
2023/09/19 02:23:10;;;;;;;6.37;2.87;;;22.80;59.20;23.30;100208.00;;;;5008439;28;20191;-52
2023/09/19 02:25:35;;;;;;;4.13;3.03;;;22.80;59.20;23.20;100206.00;;;;5008387;28;20183;-52
2023/09/19 02:28:02;;;;;;;4.10;2.60;;;22.80;59.10;23.20;100202.00;;;;5008210;28;20697;-52
2023/09/19 02:30:28;;;;;;;3.90;2.70;;;22.70;58.90;23.20;100213.00;;;;5006963;28;20588;-52
2023/09/19 02:32:55;;;;;;;6.33;2.83;;;22.80;59.00;23.20;100222.00;;;;5007013;28;20187;-52
2023/09/19 02:35:20;;;;;;;5.27;2.63;;;22.70;58.90;23.10;100212.00;;;;5007644;28;20622;-52
2023/09/19 02:37:47;;;;;;;3.60;2.43;;;22.70;58.90;23.10;100222.00;;;;5007847;28;20179;-52
2023/09/19 02:40:19;;;;;;;6.57;3.20;;;22.70;58.90;23.10;100222.00;;;;5007685;28;20333;-52
2023/09/19 02:42:49;;;;;;;6.37;3.13;;;22.70;58.90;22.90;100225.00;;;;5008070;28;20195;-52
2023/09/19 02:45:17;;;;;;;7.50;3.00;;;22.60;58.80;23.10;100221.00;;;;5007613;28;20619;-52
2023/09/19 02:47:46;;;;;;;4.87;2.70;;;22.60;58.90;23.10;100229.00;;;;5006927;28;20210;-51
2023/09/19 02:50:13;;;;;;;4.90;2.70;;;22.60;59.40;23.00;100234.00;;;;5007082;28;20215;-51
2023/09/19 02:52:43;;;;;;;6.00;3.17;;;22.60;58.80;23.00;100231.00;;;;5006320;28;20176;-52
2023/09/19 02:55:09;;;;;;;6.47;3.33;;;22.50;58.70;23.00;100225.00;;;;5008496;28;20361;-52
2023/09/19 02:57:40;;;;;;;5.90;2.93;;;22.50;58.70;23.00;100230.00;;;;5008262;28;20203;-52
2023/09/19 03:00:12;;;;;;;5.27;2.90;;;22.50;58.60;23.00;100234.00;;;;5008264;28;20211;-52
2023/09/19 03:02:39;;;;;;;4.90;2.67;;;22.50;58.40;22.90;100236.00;;;;5008591;28;20187;-52
2023/09/19 03:05:06;;;;;;;4.63;2.73;;;22.50;58.20;22.90;100247.00;;;;5011836;28;20695;-52
2023/09/19 03:07:32;;;;;;;6.33;3.10;;;22.40;58.10;22.90;100233.00;;;;5013202;28;20227;-52
2023/09/19 03:09:58;;;;;;;5.97;2.80;;;22.50;58.10;22.90;100248.00;;;;5011853;28;20207;-52
2023/09/19 03:12:24;;;;;;;4.77;2.80;;;22.40;58.00;22.90;100244.00;;;;5013132;28;20665;-52
2023/09/19 03:14:50;;;;;;;6.33;3.53;;;22.40;58.10;22.80;100254.00;;;;5012719;28;20183;-52
2023/09/19 03:17:16;;;;;;;6.00;2.80;;;22.40;58.20;22.80;100259.00;;;;5012687;28;20187;-52
2023/09/19 03:19:42;;;;;;;6.00;2.70;;;22.40;58.30;22.80;100260.00;;;;5025317;28;20207;-51
2023/09/19 03:22:07;;;;;;;4.50;2.73;;;22.40;58.30;22.80;100252.00;;;;5018715;28;20575;-52
2023/09/19 03:24:35;;;;;;;4.27;3.00;;;22.40;58.40;22.80;100250.00;;;;5013473;28;20210;-53
2023/09/19 03:27:01;;;;;;;6.10;2.90;;;22.30;58.30;22.80;100259.00;;;;5013683;28;20187;-53
2023/09/19 03:29:27;;;;;;;5.07;2.90;;;22.30;58.60;22.70;100263.00;;;;5014099;28;20578;-52
2023/09/19 03:31:54;;;;;;;6.57;2.90;;;22.20;58.30;22.70;100261.00;;;;5009122;28;20388;-51
2023/09/19 03:34:20;;;;;;;5.70;3.10;;;22.20;58.30;22.70;100254.00;;;;5023775;28;20861;-56
2023/09/19 03:36:46;;;;;;;6.83;3.17;;;22.20;58.20;22.70;100249.00;;;;5016354;28;20662;-52
2023/09/19 03:39:12;;;;;;;5.70;3.00;;;22.20;58.20;22.70;100261.00;;;;5012013;28;20199;-52
2023/09/19 03:41:38;;;;;;;5.87;3.00;;;22.20;58.20;22.70;100255.00;;;;5012462;28;20179;-51
2023/09/19 03:44:04;;;;;;;5.67;2.90;;;22.20;58.20;22.40;100249.00;;;;5011638;28;20198;-51
2023/09/19 03:46:32;;;;;;;5.10;2.80;;;22.20;58.10;22.60;100241.00;;;;5010459;28;20188;-52
2023/09/19 03:48:58;;;;;;;5.87;3.03;;;22.20;58.10;22.60;100246.00;;;;5011832;28;20184;-51
2023/09/19 03:51:23;;;;;;;4.63;2.80;;;22.20;58.10;22.60;100241.00;;;;5012107;28;20679;-50
2023/09/19 03:53:50;;;;;;;5.20;2.83;;;22.10;58.10;22.60;100242.00;;;;5011917;28;20179;-51
2023/09/19 03:56:15;;;;;;;4.17;2.80;;;22.10;58.10;22.60;100253.00;;;;5011725;28;20654;-52
2023/09/19 03:58:42;;;;;;;6.43;3.23;;;22.10;58.00;22.50;100246.00;;;;5011907;28;20190;-51
2023/09/19 04:01:07;;;;;;;6.77;3.13;;;22.10;58.00;22.50;100250.00;;;;5011146;28;20200;-51
2023/09/19 04:03:48;;;;;;;4.33;2.90;;;22.10;58.10;22.50;100242.00;;;;5011137;28;20195;-51
2023/09/19 04:06:14;;;;;;;4.63;2.93;;;22.10;58.20;22.50;100249.00;;;;5009843;28;20188;-51
2023/09/19 04:08:40;;;;;;;5.67;3.00;;;22.10;58.30;22.50;100240.00;;;;5011444;28;20271;-50
2023/09/19 04:11:06;;;;;;;5.57;2.73;;;22.10;58.20;22.50;100240.00;;;;5011239;28;20287;-50
2023/09/19 04:13:32;;;;;;;7.73;3.37;;;22.10;58.20;22.50;100243.00;;;;5009586;28;20176;-51
2023/09/19 04:15:58;;;;;;;6.03;2.87;;;22.10;58.40;22.50;100246.00;;;;5010985;28;20267;-52
2023/09/19 04:18:23;;;;;;;10.10;3.37;;;22.10;58.40;22.50;100250.00;;;;5012448;28;20611;-51
2023/09/19 04:20:51;;;;;;;5.23;2.90;;;22.10;58.40;22.40;100249.00;;;;5013559;28;20208;-50
2023/09/19 04:23:17;;;;;;;5.47;2.90;;;22.10;58.40;22.40;100259.00;;;;5011752;28;20187;-50
2023/09/19 04:25:43;;;;;;;5.03;2.90;;;22.10;58.40;22.40;100249.00;;;;5011318;28;20195;-50
2023/09/19 04:28:12;;;;;;;4.87;2.70;;;22.10;58.40;22.40;100252.00;;;;5010852;28;20176;-51
2023/09/19 04:30:41;;;;;;;7.60;2.70;;;22.00;58.40;22.40;100251.00;;;;5010841;28;20994;-51
2023/09/19 04:33:07;;;;;;;5.60;2.90;;;22.00;58.60;22.40;100254.00;;;;4993765;28;20180;-52
2023/09/19 04:35:33;;;;;;;4.33;2.80;;;22.00;58.60;22.40;100249.00;;;;5011206;28;20179;-50
2023/09/19 04:37:59;;;;;;;5.50;2.73;;;22.00;58.60;22.40;100260.00;;;;5010372;28;20172;-50
2023/09/19 04:40:26;;;;;;;5.63;3.10;;;22.00;58.70;22.40;100257.00;;;;5010804;28;20277;-51
2023/09/19 04:42:58;;;;;;;5.73;2.90;;;22.00;58.70;22.40;100264.00;;;;5010999;28;20187;-51
2023/09/19 04:45:27;;;;;;;6.30;3.00;;;22.00;58.80;22.30;100263.00;;;;5011023;28;20258;-52
2023/09/19 04:47:54;;;;;;;7.10;3.30;;;22.00;58.90;22.30;100265.00;;;;5010350;28;20270;-52
2023/09/19 04:50:20;;;;;;;5.33;2.87;;;22.00;58.90;22.30;100262.00;;;;5010591;28;20203;-52
2023/09/19 04:52:50;;;;;;;4.83;2.87;;;21.90;58.90;22.30;100266.00;;;;5009262;28;20849;-51
2023/09/19 04:55:20;;;;;;;4.90;2.70;;;21.90;59.00;22.30;100274.00;;;;5009652;28;20190;-51
2023/09/19 04:57:47;;;;;;;5.07;2.37;;;21.90;59.10;22.30;100269.00;;;;5010167;28;20202;-50
2023/09/19 05:00:14;;;;;;;6.73;3.00;;;21.90;59.20;22.30;100272.00;;;;5010348;28;20207;-51
2023/09/19 05:02:42;;;;;;;6.30;2.90;;;21.90;59.20;22.30;100274.00;;;;5010193;28;20262;-51
2023/09/19 05:05:10;;;;;;;5.07;2.73;;;21.90;59.30;22.30;100275.00;;;;5010434;28;20219;-51
2023/09/19 05:07:35;;;;;;;6.10;3.43;;;21.90;59.40;22.30;100276.00;;;;5010189;28;20179;-51
2023/09/19 05:10:05;;;;;;;4.37;3.13;;;21.90;59.40;22.20;100272.00;;;;5010098;28;20588;-50
2023/09/19 05:12:40;;;;;;;5.43;2.90;;;21.80;59.40;22.20;100277.00;;;;5010191;28;20199;-59
2023/09/19 05:15:07;;;;;;;6.10;3.10;;;21.80;59.50;22.20;100276.00;;;;5010193;28;20721;-51
2023/09/19 05:17:33;;;;;;;4.70;2.93;;;21.90;59.50;22.20;100288.00;;;;4995584;28;20186;-51
2023/09/19 05:20:00;;;;;;;5.97;3.10;;;21.80;59.40;22.20;100295.00;;;;5025239;28;20207;-52
2023/09/19 05:22:29;;;;;;;6.03;3.10;;;21.80;59.40;22.20;100296.00;;;;5010611;28;20661;-50
2023/09/19 05:24:54;;;;;;;4.40;2.80;;;21.80;59.30;22.20;100313.00;;;;5010163;28;20176;-51
2023/09/19 05:27:21;;;;;;;4.87;2.80;;;21.80;59.40;22.20;100304.00;;;;5009534;28;20190;-52
2023/09/19 05:29:50;;;;;;;4.70;3.10;;;21.80;59.40;22.10;100305.00;;;;5010466;28;20264;-52
2023/09/19 05:32:19;;;;;;;3.87;2.77;;;21.80;59.40;22.10;100313.00;;;;5012987;28;20275;-51
2023/09/19 05:34:45;;;;;;;5.37;3.17;;;21.70;59.20;22.10;100308.00;;;;5018473;28;20176;-51
2023/09/19 05:37:11;;;;;;;4.50;3.00;;;21.70;59.20;22.10;100321.00;;;;5009493;28;20186;-51
2023/09/19 05:39:37;;;;;;;4.20;3.00;;;21.70;59.20;22.10;100320.00;;;;5010117;28;20215;-50
2023/09/19 05:42:03;;;;;;;4.30;2.83;;;21.70;59.20;22.10;100326.00;;;;5009655;28;20202;-52
2023/09/19 05:44:29;;;;;;;5.30;3.03;;;21.70;59.20;22.10;100311.00;;;;5009388;28;20171;-51
2023/09/19 05:46:56;;;;;;;5.03;2.87;;;21.70;59.20;22.00;100335.00;;;;5009486;28;20241;-51
2023/09/19 05:49:24;;;;;;;4.37;2.60;;;21.70;59.20;22.10;100335.00;;;;5009354;28;20565;-51
2023/09/19 05:51:53;;;;;;;4.47;2.60;;;21.70;59.20;22.00;100337.00;;;;5009636;28;20757;-51
2023/09/19 05:54:20;;;;;;;5.13;2.97;;;21.70;59.20;22.00;100334.00;;;;5009121;28;20176;-51
2023/09/19 05:56:47;;;;;;;4.07;2.70;;;21.60;59.30;22.00;100343.00;;;;5009033;28;20238;-52
2023/09/19 05:59:15;;;;;;;4.70;3.00;;;21.60;59.90;22.00;100338.00;;;;5009108;28;20265;-51
2023/09/19 06:01:42;;;;;;;4.37;2.67;;;21.60;59.20;22.00;100343.00;;;;5008716;28;20202;-50
2023/09/19 06:04:08;;;;;;;5.30;2.70;;;21.60;59.20;22.00;100345.00;;;;5007936;28;20183;-51
2023/09/19 06:06:39;;;;;;;7.97;3.00;;;21.60;59.30;22.00;100358.00;;;;5008633;28;20202;-53
2023/09/19 06:09:08;;;;;;;5.83;3.10;;;21.60;59.20;22.00;100367.00;;;;5008741;28;20184;-51
2023/09/19 06:11:34;;;;;;;4.33;2.60;;;21.60;59.20;21.90;100374.00;;;;5008751;28;20199;-51
2023/09/19 06:14:02;;;;;;;5.17;2.80;;;21.50;59.10;21.90;100368.00;;;;5008476;28;20175;-50
2023/09/19 06:16:29;;;;;;;4.73;3.10;;;21.60;59.20;21.90;100368.00;;;;5008561;28;20184;-51
2023/09/19 06:18:55;;;;;;;6.03;2.83;;;21.60;59.20;21.90;100387.00;;;;5008840;28;20195;-51
2023/09/19 06:21:22;;;;;;;5.43;3.03;;;21.50;59.20;21.90;100391.00;;;;5009159;28;20195;-53
2023/09/19 06:23:48;;;;;;;4.40;2.83;;;21.50;59.20;21.90;100382.00;;;;5007331;28;20619;-52
2023/09/19 06:26:14;;;;;;;6.93;3.03;;;21.50;59.30;21.90;100384.00;;;;5007706;28;20245;-50
2023/09/19 06:28:40;;;;;;;6.97;2.90;;;21.50;59.20;21.80;100386.00;;;;5008815;28;20554;-51
2023/09/19 06:31:09;;;;;;;5.53;3.30;;;21.50;59.20;21.80;100383.00;;;;5008726;28;20226;-50
2023/09/19 06:33:39;;;;;;;5.63;2.93;;;21.40;59.10;21.80;100378.00;;;;5008666;28;20187;-53
2023/09/19 06:36:05;;;;;;;5.77;3.33;;;21.40;59.20;21.80;100380.00;;;;5008782;28;20261;-51
2023/09/19 06:38:34;;;;;;;5.27;3.10;;;21.40;59.10;21.80;100389.00;;;;5010710;28;20202;-51
2023/09/19 06:41:01;;;;;;;6.93;2.90;;;21.40;59.20;21.80;100373.00;;;;5012479;28;20211;-54
2023/09/19 06:43:28;;;;;;;5.70;2.90;;;21.40;59.20;21.80;100379.00;;;;4995170;28;20587;-52
2023/09/19 06:45:54;;;;;;;5.80;3.00;;;21.40;59.20;21.70;100380.00;;;;5012625;28;20256;-51
2023/09/19 06:48:21;;;;;;;6.23;3.23;;;21.40;59.30;21.70;100373.00;;;;5012536;28;20194;-51
2023/09/19 06:50:47;;;;;;;5.53;2.93;;;21.30;59.30;21.70;100367.00;;;;5012295;28;20248;-51
2023/09/19 06:53:13;;;;;;;5.50;3.03;;;21.30;59.40;21.70;100381.00;;;;5012392;28;20269;-51
2023/09/19 06:55:40;;;;;;;6.00;3.00;;;21.30;59.40;21.70;100374.00;;;;5012078;28;20654;-52
2023/09/19 06:58:06;;;;;;;6.00;3.00;;;21.30;59.40;21.60;100377.00;;;;5011509;28;20183;-51
2023/09/19 07:00:33;;;;;;;5.43;2.83;;;21.30;59.50;21.60;100378.00;;;;5012137;28;20704;-51
2023/09/19 07:03:12;;;;;;;5.83;3.20;;;21.20;59.60;21.60;100372.00;;;;5012317;28;20237;-52
2023/09/19 07:05:39;;;;;;;6.07;3.00;;;21.20;59.60;21.60;100370.00;;;;5006776;28;20653;-51
2023/09/19 07:08:06;;;;;;;7.63;2.90;;;21.20;59.60;21.60;100376.00;;;;5011522;28;20187;-52
2023/09/19 07:10:32;;;;;;;5.93;3.30;;;21.20;59.70;21.60;100380.00;;;;5012365;28;20694;-52
2023/09/19 07:13:06;;;;;;;6.00;3.03;;;21.20;59.80;21.50;100376.00;;;;5012262;28;20187;-51
2023/09/19 07:15:38;;;;;;;6.17;2.90;;;21.10;59.80;21.60;100391.00;;;;5008243;28;20175;-52
2023/09/19 07:18:04;;;;;;;6.47;3.20;;;21.10;59.80;21.50;100374.00;;;;5025646;28;20214;-51
2023/09/19 07:20:32;;;;;;;7.33;3.07;;;21.10;59.80;21.50;100394.00;;;;5013307;28;20694;-50
2023/09/19 07:23:00;;;;;;;5.47;2.60;;;21.10;59.80;21.50;100377.00;;;;5012545;28;20184;-51
2023/09/19 07:25:27;;;;;;;6.47;3.40;;;21.10;59.80;21.50;100388.00;;;;5011350;28;20182;-51
2023/09/19 07:27:55;;;;;;;5.07;2.77;;;21.10;59.80;21.50;100398.00;;;;5012664;28;20215;-51
2023/09/19 07:30:21;;;;;;;6.17;3.10;;;21.10;59.80;21.50;100387.00;;;;5016265;28;20238;-52
2023/09/19 07:32:47;;;;;;;7.60;3.30;;;21.10;59.80;21.50;100390.00;;;;5020578;28;20180;-52
2023/09/19 07:35:14;;;;;;;6.17;3.10;;;21.10;59.80;21.40;100400.00;;;;5011969;28;20229;-51
2023/09/19 07:37:40;;;;;;;7.37;3.43;;;21.10;59.90;21.40;100398.00;;;;5011468;28;20222;-52
2023/09/19 07:40:09;;;;;;;5.17;3.20;;;21.00;59.90;21.40;100406.00;;;;5011284;28;20192;-51
2023/09/19 07:42:38;;;;;;;6.90;3.43;;;21.00;60.00;21.40;100405.00;;;;5011497;28;20718;-52
2023/09/19 07:45:05;;;;;;;5.83;3.00;;;21.00;60.10;21.40;100403.00;;;;5011799;28;20183;-52
2023/09/19 07:47:32;;;;;;;5.23;2.97;;;21.00;60.20;21.40;100414.00;;;;5010401;28;20179;-51
2023/09/19 07:49:58;;;;;;;5.50;3.00;;;21.00;60.20;21.40;100407.00;;;;5006594;28;20203;-51
2023/09/19 07:52:24;;;;;;;5.87;3.07;;;21.00;60.40;21.40;100414.00;;;;5011260;28;20215;-51
2023/09/19 07:54:50;;;;;;;5.07;3.23;;;20.90;60.30;21.40;100413.00;;;;5010226;28;20278;-50
2023/09/19 07:57:16;;;;;;;5.63;3.07;;;21.00;60.40;21.40;100407.00;;;;5011388;28;20187;-51
2023/09/19 07:59:42;;;;;;;5.47;3.20;;;21.00;60.40;21.40;100414.00;;;;5013442;28;20208;-50
2023/09/19 08:02:15;;;;;;;4.20;2.70;;;20.90;60.30;21.40;100420.00;;;;5013520;28;20191;-53
2023/09/19 08:04:42;;;;;;;5.27;3.27;;;20.90;60.50;21.30;100405.00;;;;5011818;28;20188;-56
2023/09/19 08:07:08;;;;;;;7.30;3.20;;;20.80;60.70;21.30;100423.00;;;;5013539;28;20187;-53
2023/09/19 08:09:35;;;;;;;13.77;3.30;;;20.80;60.90;21.30;100415.00;;;;5012245;28;20195;-53
2023/09/19 08:12:04;;;;;;;11.00;3.57;;;20.80;60.90;21.30;100413.00;;;;5010048;28;20609;-52
2023/09/19 08:14:30;;;;;;;8.63;3.07;;;20.80;61.00;21.30;100411.00;;;;5011238;28;20639;-52
2023/09/19 08:16:58;;;;;;;7.80;3.53;;;20.80;61.00;21.30;100408.00;;;;5011387;28;20186;-52
2023/09/19 08:19:28;;;;;;;6.57;3.50;;;20.70;61.00;21.20;100410.00;;;;5011026;28;20274;-52
2023/09/19 08:22:01;;;;;;;5.00;2.60;;;20.80;61.00;21.20;100421.00;;;;5009537;28;20184;-52
2023/09/19 08:24:30;;;;;;;7.23;3.13;;;20.80;61.10;21.20;100420.00;;;;5009931;28;20210;-51
2023/09/19 08:26:56;;;;;;;4.40;2.90;;;20.70;61.10;21.20;100426.00;;;;5010973;28;20650;-52
2023/09/19 08:29:27;;;;;;;6.23;3.13;;;20.60;61.10;21.20;100422.00;;;;5011043;28;20215;-52
2023/09/19 08:31:56;;;;;;;6.37;3.00;;;20.70;61.40;21.20;100418.00;;;;5010784;28;20210;-52
2023/09/19 08:34:25;;;;;;;6.53;3.00;;;20.70;61.30;21.20;100408.00;;;;5011169;28;20194;-52
2023/09/19 08:36:52;;;;;;;16.70;3.93;;;20.70;61.20;21.20;100427.00;;;;5009727;28;20278;-52
2023/09/19 08:39:19;;;;;;;5.77;3.00;;;20.70;61.00;21.20;100414.00;;;;5009463;28;20238;-53
2023/09/19 08:41:45;;;;;;;7.40;3.17;;;20.80;61.10;21.20;100423.00;;;;5010652;28;20180;-52
2023/09/19 08:44:10;;;;;;;5.63;3.03;;;20.70;60.90;21.20;100422.00;;;;5010792;28;20190;-52
2023/09/19 08:46:38;;;;;;;7.73;3.30;;;20.70;61.00;21.20;100432.00;;;;5010923;28;20179;-52
2023/09/19 08:49:05;;;;;;;7.70;3.37;;;20.70;61.20;21.20;100431.00;;;;5009548;28;20188;-53
2023/09/19 08:51:41;;;;;;;7.13;3.07;;;20.70;61.50;21.20;100437.00;;;;5010139;28;20218;-52
2023/09/19 08:54:07;;;;;;;6.97;3.43;;;20.70;61.50;21.20;100428.00;;;;5010697;28;20183;-55
2023/09/19 08:56:33;;;;;;;7.43;2.80;;;20.60;61.90;21.20;100426.00;;;;5010583;28;20194;-55
2023/09/19 08:59:07;;;;;;;4.80;2.93;;;20.60;61.60;21.20;100428.00;;;;5010252;28;20225;-55
2023/09/19 09:01:33;;;;;;;5.70;2.73;;;20.60;61.50;21.20;100428.00;;;;5009171;28;20230;-54
2023/09/19 09:03:59;;;;;;;6.33;2.90;;;20.70;61.40;21.20;100424.00;;;;5008892;28;20187;-55
2023/09/19 09:06:27;;;;;;;5.33;2.77;;;20.60;61.30;21.20;100439.00;;;;4993048;28;20568;-54
2023/09/19 09:08:54;;;;;;;6.83;3.20;;;20.60;61.30;21.20;100432.00;;;;5009151;28;20233;-55
2023/09/19 09:11:20;;;;;;;5.43;3.00;;;20.60;61.20;21.20;100433.00;;;;5008649;28;20571;-55
2023/09/19 09:13:46;;;;;;;5.87;2.97;;;20.70;61.10;21.20;100422.00;;;;5010659;28;20222;-55
2023/09/19 09:16:13;;;;;;;5.87;2.83;;;20.60;60.90;21.20;100423.00;;;;5021313;28;20223;-55
2023/09/19 09:18:39;;;;;;;5.53;2.77;;;20.60;60.90;21.10;100422.00;;;;5023213;28;20184;-54
2023/09/19 09:21:05;;;;;;;3.97;2.90;;;20.60;60.80;21.20;100425.00;;;;5010707;28;20207;-55
2023/09/19 09:23:32;;;;;;;4.67;2.80;;;20.60;60.70;21.10;100421.00;;;;5010205;28;20199;-55
2023/09/19 09:26:01;;;;;;;6.07;3.17;;;20.50;60.40;21.10;100420.00;;;;5011321;28;20478;-55
2023/09/19 09:28:28;;;;;;;5.67;2.97;;;20.50;60.10;21.10;100424.00;;;;5011539;28;20191;-56
2023/09/19 09:30:54;;;;;;;5.83;3.00;;;20.60;60.10;21.10;100418.00;;;;5020407;28;20450;-55
2023/09/19 09:33:21;;;;;;;6.17;3.10;;;20.50;59.80;21.10;100407.00;;;;5019608;28;20249;-53
2023/09/19 09:35:56;;;;;;;6.73;2.90;;;20.50;59.70;21.10;100412.00;;;;5009018;28;20271;-55
2023/09/19 09:38:27;;;;;;;5.20;2.60;;;20.50;59.60;21.10;100411.00;;;;5010025;28;20186;-54
2023/09/19 09:41:06;;;;;;;6.07;2.80;;;20.50;59.60;21.10;100419.00;;;;5009962;28;20208;-55
2023/09/19 09:43:35;;;;;;;4.97;2.97;;;20.50;59.60;21.10;100407.00;;;;5009957;28;20218;-53
2023/09/19 09:51:45;;;;;;;6.47;2.80;;;20.50;59.30;21.10;100415.00;;;;5008998;28;20468;-56
2023/09/19 09:54:20;;;;;;;4.63;2.77;;;20.50;58.70;21.00;100409.00;;;;5008993;28;20263;-55
2023/09/19 09:56:59;;;;;;;6.33;2.90;;;20.50;58.80;21.00;100409.00;;;;5009916;28;20183;-54
2023/09/19 10:00:08;;;;;;;3.70;2.43;;;20.50;58.90;21.10;100410.00;;;;5008422;28;20701;-54
2023/09/19 10:02:39;;;;;;;4.60;2.43;;;20.50;58.70;21.00;100403.00;;;;5008567;28;20253;-55
2023/09/19 10:05:40;;;;;;;5.97;3.00;;;20.50;58.80;21.00;100411.00;;;;5009852;28;20194;-55
2023/09/19 10:08:13;;;;;;;4.43;2.50;;;20.50;58.90;21.00;100405.00;;;;5009530;28;20267;-54
2023/09/19 10:13:18;;;;;;;3.23;2.50;;;20.50;58.80;21.10;100410.00;;;;5009535;28;20187;-55
2023/09/19 10:15:50;;;;;;;4.70;2.53;;;20.40;58.70;21.10;100410.00;;;;5009902;28;20915;-54
2023/09/19 10:18:26;;;;;;;4.43;2.90;;;20.40;58.90;21.00;100409.00;;;;5008185;28;20334;-54
2023/09/19 10:20:52;;;;;;;3.13;2.50;;;20.50;58.90;21.00;100413.00;;;;5008425;28;20827;-55
2023/09/19 10:23:23;;;;;;;3.67;2.47;;;20.40;58.70;21.10;100400.00;;;;5009703;28;20237;-55
2023/09/19 10:25:49;;;;;;;4.73;2.60;;;20.50;58.70;21.10;100401.00;;;;5010036;28;20183;-56
2023/09/19 10:28:20;;;;;;;5.60;2.90;;;20.50;58.70;21.10;100401.00;;;;5010016;28;20617;-55
2023/09/19 10:30:51;;;;;;;5.07;2.57;;;20.50;58.60;21.10;100400.00;;;;5009220;28;20540;-55
2023/09/19 10:33:25;;;;;;;5.53;2.63;;;20.50;58.50;21.10;100401.00;;;;5009819;28;20261;-55
2023/09/19 10:35:51;;;;;;;4.50;2.70;;;20.50;58.40;21.10;100400.00;;;;5009963;28;20309;-56
2023/09/19 10:38:23;;;;;;;4.43;2.90;;;20.50;58.40;21.10;100380.00;;;;5009662;28;20657;-55
2023/09/19 10:40:51;;;;;;;4.30;2.87;;;20.50;58.40;21.10;100407.00;;;;4991983;28;20202;-55
2023/09/19 10:43:18;;;;;;;7.97;3.03;;;20.50;58.30;21.10;100406.00;;;;5009187;28;20206;-54
2023/09/19 10:45:53;;;;;;;7.30;2.97;;;20.50;58.30;21.10;100397.00;;;;5009631;28;20188;-55
2023/09/19 10:48:19;;;;;;;4.40;2.73;;;20.50;57.80;21.10;100380.00;;;;5009341;28;20179;-54
2023/09/19 10:51:11;;;;;;;5.37;2.67;;;20.50;57.60;21.10;100377.00;;;;5009367;28;20579;-55
2023/09/19 10:54:13;;;;;;;8.77;3.27;;;20.50;57.70;21.00;100388.00;;;;5008540;28;20229;-55
2023/09/19 10:56:44;;;;;;;8.27;3.30;;;20.50;57.70;21.00;100387.00;;;;4996208;28;20225;-55
2023/09/19 10:59:24;;;;;;;5.03;2.70;;;20.40;57.60;21.00;100380.00;;;;5007918;28;20596;-56
2023/09/19 11:01:58;;;;;;;6.97;3.00;;;20.50;57.80;21.00;100388.00;;;;5009292;28;20670;-55
2023/09/19 11:04:36;;;;;;;4.93;2.80;;;20.50;57.90;21.10;100389.00;;;;5009314;28;20258;-55